sensor_id;sensor_type;location;lat;lon;timestamp;P1;durP1;ratioP1;P2;durP2;ratioP2
10333;SDS011;5212;47.892;16.406;2022-08-01T00:02:17;4.00;;;3.70;;
10333;SDS011;5212;47.892;16.406;2022-08-01T00:04:44;3.93;;;3.63;;
10333;SDS011;5212;47.892;16.406;2022-08-01T00:07:10;4.30;;;3.90;;
10333;SDS011;5212;47.892;16.406;2022-08-01T00:09:39;4.40;;;4.00;;
10333;SDS011;5212;47.892;16.406;2022-08-01T00:12:06;4.67;;;4.27;;
10333;SDS011;5212;47.892;16.406;2022-08-01T00:14:33;3.97;;;3.60;;
10333;SDS011;5212;47.892;16.406;2022-08-01T00:17:00;4.50;;;4.10;;
10333;SDS011;5212;47.892;16.406;2022-08-01T00:19:27;4.43;;;4.03;;
10333;SDS011;5212;47.892;16.406;2022-08-01T00:21:54;4.23;;;3.87;;
10333;SDS011;5212;47.892;16.406;2022-08-01T00:24:21;4.60;;;4.20;;
10333;SDS011;5212;47.892;16.406;2022-08-01T00:26:50;4.63;;;4.23;;
10333;SDS011;5212;47.892;16.406;2022-08-01T00:29:17;4.80;;;4.40;;
10333;SDS011;5212;47.892;16.406;2022-08-01T00:31:43;4.30;;;3.90;;
10333;SDS011;5212;47.892;16.406;2022-08-01T00:34:10;4.30;;;3.90;;
10333;SDS011;5212;47.892;16.406;2022-08-01T00:36:37;4.60;;;4.20;;
10333;SDS011;5212;47.892;16.406;2022-08-01T00:39:04;4.70;;;4.30;;
10333;SDS011;5212;47.892;16.406;2022-08-01T00:41:31;4.47;;;4.07;;
10333;SDS011;5212;47.892;16.406;2022-08-01T00:44:01;4.47;;;3.90;;
10333;SDS011;5212;47.892;16.406;2022-08-01T00:46:29;4.23;;;3.93;;
10333;SDS011;5212;47.892;16.406;2022-08-01T00:48:56;4.67;;;4.27;;
10333;SDS011;5212;47.892;16.406;2022-08-01T00:51:23;5.40;;;4.50;;
10333;SDS011;5212;47.892;16.406;2022-08-01T00:53:51;5.00;;;4.60;;
10333;SDS011;5212;47.892;16.406;2022-08-01T00:56:18;4.83;;;4.43;;
10333;SDS011;5212;47.892;16.406;2022-08-01T00:58:45;4.80;;;4.40;;
10333;SDS011;5212;47.892;16.406;2022-08-01T01:01:14;4.97;;;4.57;;
10333;SDS011;5212;47.892;16.406;2022-08-01T01:03:41;5.03;;;4.63;;
10333;SDS011;5212;47.892;16.406;2022-08-01T01:06:13;5.23;;;4.73;;
10333;SDS011;5212;47.892;16.406;2022-08-01T01:08:46;4.60;;;4.20;;
10333;SDS011;5212;47.892;16.406;2022-08-01T01:11:20;4.70;;;4.30;;
10333;SDS011;5212;47.892;16.406;2022-08-01T01:13:54;5.33;;;4.90;;
10333;SDS011;5212;47.892;16.406;2022-08-01T01:16:28;5.73;;;5.23;;
10333;SDS011;5212;47.892;16.406;2022-08-01T01:18:55;4.90;;;4.50;;
10333;SDS011;5212;47.892;16.406;2022-08-01T01:21:30;5.63;;;5.13;;
10333;SDS011;5212;47.892;16.406;2022-08-01T01:24:04;5.43;;;4.93;;
10333;SDS011;5212;47.892;16.406;2022-08-01T01:26:43;5.03;;;4.63;;
10333;SDS011;5212;47.892;16.406;2022-08-01T01:29:15;5.27;;;4.87;;
10333;SDS011;5212;47.892;16.406;2022-08-01T01:31:44;6.30;;;5.73;;
10333;SDS011;5212;47.892;16.406;2022-08-01T01:34:15;6.23;;;5.63;;
10333;SDS011;5212;47.892;16.406;2022-08-01T01:36:44;5.80;;;5.37;;
10333;SDS011;5212;47.892;16.406;2022-08-01T01:39:12;6.07;;;5.57;;
10333;SDS011;5212;47.892;16.406;2022-08-01T01:41:40;6.60;;;5.97;;
10333;SDS011;5212;47.892;16.406;2022-08-01T01:44:08;7.37;;;6.67;;
10333;SDS011;5212;47.892;16.406;2022-08-01T01:46:37;6.10;;;5.60;;
10333;SDS011;5212;47.892;16.406;2022-08-01T01:49:05;6.60;;;5.50;;
10333;SDS011;5212;47.892;16.406;2022-08-01T01:51:35;6.33;;;5.73;;
10333;SDS011;5212;47.892;16.406;2022-08-01T01:54:02;6.50;;;6.00;;
10333;SDS011;5212;47.892;16.406;2022-08-01T01:56:31;7.03;;;6.33;;
10333;SDS011;5212;47.892;16.406;2022-08-01T01:59:00;6.10;;;5.60;;
10333;SDS011;5212;47.892;16.406;2022-08-01T02:01:29;6.30;;;5.80;;
10333;SDS011;5212;47.892;16.406;2022-08-01T02:03:59;5.90;;;5.40;;
10333;SDS011;5212;47.892;16.406;2022-08-01T02:06:28;6.73;;;6.13;;
10333;SDS011;5212;47.892;16.406;2022-08-01T02:08:56;6.50;;;6.00;;
10333;SDS011;5212;47.892;16.406;2022-08-01T02:11:23;7.33;;;6.60;;
10333;SDS011;5212;47.892;16.406;2022-08-01T02:13:52;6.63;;;6.00;;
10333;SDS011;5212;47.892;16.406;2022-08-01T02:16:31;6.20;;;5.70;;
10333;SDS011;5212;47.892;16.406;2022-08-01T02:19:01;6.10;;;5.60;;
10333;SDS011;5212;47.892;16.406;2022-08-01T02:21:30;6.90;;;6.23;;
10333;SDS011;5212;47.892;16.406;2022-08-01T02:24:00;7.30;;;6.60;;
10333;SDS011;5212;47.892;16.406;2022-08-01T02:26:33;6.40;;;5.80;;
10333;SDS011;5212;47.892;16.406;2022-08-01T02:29:02;6.33;;;5.80;;
10333;SDS011;5212;47.892;16.406;2022-08-01T02:31:34;6.37;;;5.80;;
10333;SDS011;5212;47.892;16.406;2022-08-01T02:34:04;6.00;;;5.50;;
10333;SDS011;5212;47.892;16.406;2022-08-01T02:36:33;5.90;;;5.40;;
10333;SDS011;5212;47.892;16.406;2022-08-01T02:39:01;5.50;;;5.00;;
10333;SDS011;5212;47.892;16.406;2022-08-01T02:41:30;6.30;;;5.70;;
10333;SDS011;5212;47.892;16.406;2022-08-01T02:43:58;5.40;;;5.00;;
10333;SDS011;5212;47.892;16.406;2022-08-01T02:46:28;6.10;;;5.60;;
10333;SDS011;5212;47.892;16.406;2022-08-01T02:49:00;5.70;;;5.20;;
10333;SDS011;5212;47.892;16.406;2022-08-01T02:51:32;5.50;;;5.10;;
10333;SDS011;5212;47.892;16.406;2022-08-01T02:53:59;5.60;;;5.10;;
10333;SDS011;5212;47.892;16.406;2022-08-01T02:56:28;5.60;;;5.10;;
10333;SDS011;5212;47.892;16.406;2022-08-01T02:59:04;5.37;;;4.93;;
10333;SDS011;5212;47.892;16.406;2022-08-01T03:01:32;5.83;;;5.33;;
10333;SDS011;5212;47.892;16.406;2022-08-01T03:04:01;5.00;;;4.60;;
10333;SDS011;5212;47.892;16.406;2022-08-01T03:06:30;5.57;;;5.07;;
10333;SDS011;5212;47.892;16.406;2022-08-01T03:08:58;6.20;;;5.70;;
10333;SDS011;5212;47.892;16.406;2022-08-01T03:11:26;6.40;;;5.80;;
10333;SDS011;5212;47.892;16.406;2022-08-01T03:13:54;5.50;;;5.00;;
10333;SDS011;5212;47.892;16.406;2022-08-01T03:16:22;6.27;;;5.77;;
10333;SDS011;5212;47.892;16.406;2022-08-01T03:18:52;5.60;;;5.10;;
10333;SDS011;5212;47.892;16.406;2022-08-01T03:21:20;6.00;;;5.50;;
10333;SDS011;5212;47.892;16.406;2022-08-01T03:23:50;5.33;;;4.93;;
10333;SDS011;5212;47.892;16.406;2022-08-01T03:26:22;5.13;;;4.73;;
10333;SDS011;5212;47.892;16.406;2022-08-01T03:28:50;5.23;;;4.73;;
10333;SDS011;5212;47.892;16.406;2022-08-01T03:31:19;5.63;;;5.13;;
10333;SDS011;5212;47.892;16.406;2022-08-01T03:33:47;5.80;;;5.20;;
10333;SDS011;5212;47.892;16.406;2022-08-01T03:36:14;5.30;;;4.90;;
10333;SDS011;5212;47.892;16.406;2022-08-01T03:38:41;6.00;;;5.50;;
10333;SDS011;5212;47.892;16.406;2022-08-01T03:41:11;5.10;;;4.70;;
10333;SDS011;5212;47.892;16.406;2022-08-01T03:43:43;5.07;;;4.67;;
10333;SDS011;5212;47.892;16.406;2022-08-01T03:46:13;5.33;;;4.83;;
10333;SDS011;5212;47.892;16.406;2022-08-01T03:48:47;5.23;;;4.83;;
10333;SDS011;5212;47.892;16.406;2022-08-01T03:51:15;5.10;;;4.70;;
10333;SDS011;5212;47.892;16.406;2022-08-01T03:53:42;5.40;;;4.80;;
10333;SDS011;5212;47.892;16.406;2022-08-01T03:56:13;4.97;;;4.57;;
10333;SDS011;5212;47.892;16.406;2022-08-01T03:58:44;5.03;;;4.63;;
10333;SDS011;5212;47.892;16.406;2022-08-01T04:01:12;4.83;;;4.43;;
10333;SDS011;5212;47.892;16.406;2022-08-01T04:03:39;5.43;;;4.93;;
10333;SDS011;5212;47.892;16.406;2022-08-01T04:06:07;5.17;;;4.77;;
10333;SDS011;5212;47.892;16.406;2022-08-01T04:08:36;5.13;;;4.73;;
10333;SDS011;5212;47.892;16.406;2022-08-01T04:11:03;4.93;;;4.53;;
10333;SDS011;5212;47.892;16.406;2022-08-01T04:13:32;4.80;;;4.40;;
10333;SDS011;5212;47.892;16.406;2022-08-01T04:15:59;6.03;;;5.50;;
10333;SDS011;5212;47.892;16.406;2022-08-01T04:18:26;5.70;;;5.20;;
10333;SDS011;5212;47.892;16.406;2022-08-01T04:20:53;5.53;;;5.03;;
10333;SDS011;5212;47.892;16.406;2022-08-01T04:23:22;5.70;;;5.30;;
10333;SDS011;5212;47.892;16.406;2022-08-01T04:25:49;5.77;;;5.37;;
10333;SDS011;5212;47.892;16.406;2022-08-01T04:28:16;5.63;;;5.13;;
10333;SDS011;5212;47.892;16.406;2022-08-01T04:30:46;5.60;;;5.10;;
10333;SDS011;5212;47.892;16.406;2022-08-01T04:33:15;5.30;;;4.90;;
10333;SDS011;5212;47.892;16.406;2022-08-01T04:35:44;5.80;;;5.30;;
10333;SDS011;5212;47.892;16.406;2022-08-01T04:38:12;5.70;;;5.10;;
10333;SDS011;5212;47.892;16.406;2022-08-01T04:40:43;5.20;;;4.80;;
10333;SDS011;5212;47.892;16.406;2022-08-01T04:43:11;5.00;;;4.40;;
10333;SDS011;5212;47.892;16.406;2022-08-01T04:45:38;4.90;;;4.50;;
10333;SDS011;5212;47.892;16.406;2022-08-01T04:48:07;5.27;;;4.80;;
10333;SDS011;5212;47.892;16.406;2022-08-01T04:50:35;5.13;;;4.73;;
10333;SDS011;5212;47.892;16.406;2022-08-01T04:53:02;4.90;;;4.50;;
10333;SDS011;5212;47.892;16.406;2022-08-01T04:55:29;5.00;;;4.60;;
10333;SDS011;5212;47.892;16.406;2022-08-01T04:57:56;5.20;;;4.80;;
10333;SDS011;5212;47.892;16.406;2022-08-01T05:00:23;5.10;;;4.70;;
10333;SDS011;5212;47.892;16.406;2022-08-01T05:02:50;4.50;;;4.20;;
10333;SDS011;5212;47.892;16.406;2022-08-01T05:05:19;5.27;;;4.87;;
10333;SDS011;5212;47.892;16.406;2022-08-01T05:07:46;4.77;;;4.37;;
10333;SDS011;5212;47.892;16.406;2022-08-01T05:10:15;5.27;;;4.80;;
10333;SDS011;5212;47.892;16.406;2022-08-01T05:12:42;4.90;;;4.33;;
10333;SDS011;5212;47.892;16.406;2022-08-01T05:40:58;4.47;;;4.07;;
10333;SDS011;5212;47.892;16.406;2022-08-01T05:43:48;4.30;;;3.90;;
10333;SDS011;5212;47.892;16.406;2022-08-01T05:46:18;5.00;;;4.00;;
10333;SDS011;5212;47.892;16.406;2022-08-01T06:06:54;3.20;;;3.00;;
10333;SDS011;5212;47.892;16.406;2022-08-01T06:09:31;3.13;;;2.77;;
10333;SDS011;5212;47.892;16.406;2022-08-01T06:11:59;3.20;;;2.90;;
10333;SDS011;5212;47.892;16.406;2022-08-01T06:25:56;2.87;;;2.67;;
10333;SDS011;5212;47.892;16.406;2022-08-01T06:28:31;3.13;;;2.83;;
10333;SDS011;5212;47.892;16.406;2022-08-01T10:49:34;2.60;;;2.40;;
10333;SDS011;5212;47.892;16.406;2022-08-01T10:54:39;2.50;;;2.30;;
10333;SDS011;5212;47.892;16.406;2022-08-01T11:08:23;3.33;;;2.70;;
10333;SDS011;5212;47.892;16.406;2022-08-01T11:10:51;3.10;;;2.90;;
10333;SDS011;5212;47.892;16.406;2022-08-01T12:40:30;2.63;;;2.30;;
10333;SDS011;5212;47.892;16.406;2022-08-01T12:42:58;2.80;;;2.60;;
10333;SDS011;5212;47.892;16.406;2022-08-01T12:45:27;2.20;;;2.00;;
10333;SDS011;5212;47.892;16.406;2022-08-01T12:50:33;2.95;;;2.17;;
10333;SDS011;5212;47.892;16.406;2022-08-01T12:53:02;1.97;;;1.83;;
10333;SDS011;5212;47.892;16.406;2022-08-01T12:55:46;2.40;;;2.07;;
10333;SDS011;5212;47.892;16.406;2022-08-01T12:58:15;2.57;;;2.27;;
10333;SDS011;5212;47.892;16.406;2022-08-01T13:00:45;2.80;;;2.30;;
10333;SDS011;5212;47.892;16.406;2022-08-01T13:03:14;2.17;;;1.97;;
10333;SDS011;5212;47.892;16.406;2022-08-01T13:05:43;2.80;;;1.83;;
10333;SDS011;5212;47.892;16.406;2022-08-01T13:08:11;2.00;;;1.60;;
10333;SDS011;5212;47.892;16.406;2022-08-01T13:10:42;1.93;;;1.60;;
10333;SDS011;5212;47.892;16.406;2022-08-01T13:13:14;1.93;;;1.70;;
10333;SDS011;5212;47.892;16.406;2022-08-01T13:15:45;1.90;;;1.70;;
10333;SDS011;5212;47.892;16.406;2022-08-01T13:18:22;2.73;;;2.20;;
10333;SDS011;5212;47.892;16.406;2022-08-01T13:23:35;2.50;;;2.17;;
10333;SDS011;5212;47.892;16.406;2022-08-01T13:26:14;2.43;;;2.23;;
10333;SDS011;5212;47.892;16.406;2022-08-01T13:28:42;2.97;;;2.30;;
10333;SDS011;5212;47.892;16.406;2022-08-01T13:41:26;2.43;;;2.23;;
10333;SDS011;5212;47.892;16.406;2022-08-01T13:43:57;2.50;;;2.30;;
10333;SDS011;5212;47.892;16.406;2022-08-01T13:46:25;2.37;;;2.10;;
10333;SDS011;5212;47.892;16.406;2022-08-01T13:48:55;3.63;;;2.13;;
10333;SDS011;5212;47.892;16.406;2022-08-01T14:12:42;2.67;;;1.57;;
10333;SDS011;5212;47.892;16.406;2022-08-01T14:15:14;2.03;;;1.83;;
10333;SDS011;5212;47.892;16.406;2022-08-01T14:17:50;1.80;;;1.70;;
10333;SDS011;5212;47.892;16.406;2022-08-01T14:20:17;3.20;;;1.70;;
10333;SDS011;5212;47.892;16.406;2022-08-01T14:22:58;4.00;;;1.87;;
10333;SDS011;5212;47.892;16.406;2022-08-01T14:25:49;2.57;;;1.50;;
10333;SDS011;5212;47.892;16.406;2022-08-01T14:28:21;1.73;;;1.63;;
10333;SDS011;5212;47.892;16.406;2022-08-01T14:30:49;4.20;;;1.90;;
10333;SDS011;5212;47.892;16.406;2022-08-01T14:33:35;1.70;;;1.40;;
10333;SDS011;5212;47.892;16.406;2022-08-01T14:36:05;5.83;;;1.70;;
10333;SDS011;5212;47.892;16.406;2022-08-01T14:38:46;2.30;;;1.50;;
10333;SDS011;5212;47.892;16.406;2022-08-01T14:41:15;1.90;;;1.70;;
10333;SDS011;5212;47.892;16.406;2022-08-01T14:43:50;1.70;;;1.60;;
10333;SDS011;5212;47.892;16.406;2022-08-01T14:51:09;2.80;;;1.80;;
10333;SDS011;5212;47.892;16.406;2022-08-01T14:53:53;1.80;;;1.70;;
10333;SDS011;5212;47.892;16.406;2022-08-01T14:56:21;1.50;;;1.40;;
10333;SDS011;5212;47.892;16.406;2022-08-01T15:30:30;2.00;;;1.90;;
10333;SDS011;5212;47.892;16.406;2022-08-01T15:33:12;2.70;;;1.90;;
10333;SDS011;5212;47.892;16.406;2022-08-01T15:35:39;2.07;;;1.87;;
10333;SDS011;5212;47.892;16.406;2022-08-01T15:38:11;2.40;;;2.20;;
10333;SDS011;5212;47.892;16.406;2022-08-01T15:41:04;2.03;;;1.90;;
10333;SDS011;5212;47.892;16.406;2022-08-01T15:43:35;5.40;;;2.20;;
10333;SDS011;5212;47.892;16.406;2022-08-01T15:48:33;2.30;;;2.10;;
10333;SDS011;5212;47.892;16.406;2022-08-01T15:51:06;2.80;;;2.00;;
10333;SDS011;5212;47.892;16.406;2022-08-01T15:53:33;2.00;;;1.90;;
10333;SDS011;5212;47.892;16.406;2022-08-01T15:56:00;2.33;;;1.93;;
10333;SDS011;5212;47.892;16.406;2022-08-01T16:01:17;2.50;;;2.03;;
10333;SDS011;5212;47.892;16.406;2022-08-01T16:06:36;2.80;;;2.20;;
10333;SDS011;5212;47.892;16.406;2022-08-01T16:09:07;2.37;;;2.17;;
10333;SDS011;5212;47.892;16.406;2022-08-01T16:11:36;2.50;;;2.30;;
10333;SDS011;5212;47.892;16.406;2022-08-01T16:14:05;2.17;;;1.97;;
10333;SDS011;5212;47.892;16.406;2022-08-01T16:16:32;2.60;;;2.40;;
10333;SDS011;5212;47.892;16.406;2022-08-01T16:19:01;2.60;;;2.40;;
10333;SDS011;5212;47.892;16.406;2022-08-01T16:21:38;2.73;;;2.40;;
10333;SDS011;5212;47.892;16.406;2022-08-01T16:24:19;4.10;;;2.30;;
10333;SDS011;5212;47.892;16.406;2022-08-01T16:26:47;2.80;;;2.60;;
10333;SDS011;5212;47.892;16.406;2022-08-01T16:29:20;3.07;;;2.33;;
10333;SDS011;5212;47.892;16.406;2022-08-01T16:31:49;2.83;;;2.10;;
10333;SDS011;5212;47.892;16.406;2022-08-01T17:35:46;2.00;;;1.90;;
10333;SDS011;5212;47.892;16.406;2022-08-01T17:38:13;2.13;;;1.73;;
10333;SDS011;5212;47.892;16.406;2022-08-01T17:40:40;2.33;;;2.10;;
10333;SDS011;5212;47.892;16.406;2022-08-01T17:47:58;1.88;;;1.77;;
10333;SDS011;5212;47.892;16.406;2022-08-01T18:44:38;2.07;;;1.87;;
10333;SDS011;5212;47.892;16.406;2022-08-01T18:47:07;2.40;;;1.80;;
10333;SDS011;5212;47.892;16.406;2022-08-01T18:49:33;3.63;;;2.00;;
10333;SDS011;5212;47.892;16.406;2022-08-01T18:52:00;2.60;;;1.90;;
10333;SDS011;5212;47.892;16.406;2022-08-01T18:54:27;2.87;;;1.50;;
10333;SDS011;5212;47.892;16.406;2022-08-01T18:56:55;2.47;;;1.70;;
10333;SDS011;5212;47.892;16.406;2022-08-01T18:59:22;2.43;;;1.53;;
10333;SDS011;5212;47.892;16.406;2022-08-01T19:01:50;1.90;;;1.70;;
10333;SDS011;5212;47.892;16.406;2022-08-01T19:04:17;2.17;;;1.80;;
10333;SDS011;5212;47.892;16.406;2022-08-01T19:06:44;1.93;;;1.70;;
10333;SDS011;5212;47.892;16.406;2022-08-01T19:09:12;2.30;;;1.90;;
10333;SDS011;5212;47.892;16.406;2022-08-01T19:11:39;1.90;;;1.70;;
10333;SDS011;5212;47.892;16.406;2022-08-01T19:14:06;1.77;;;1.67;;
10333;SDS011;5212;47.892;16.406;2022-08-01T19:16:33;2.00;;;1.83;;
10333;SDS011;5212;47.892;16.406;2022-08-01T19:19:03;1.70;;;1.60;;
10333;SDS011;5212;47.892;16.406;2022-08-01T19:21:30;1.90;;;1.70;;
10333;SDS011;5212;47.892;16.406;2022-08-01T19:23:57;2.00;;;1.80;;
10333;SDS011;5212;47.892;16.406;2022-08-01T19:26:44;1.93;;;1.80;;
10333;SDS011;5212;47.892;16.406;2022-08-01T19:29:14;1.93;;;1.73;;
10333;SDS011;5212;47.892;16.406;2022-08-01T19:31:42;2.47;;;1.90;;
10333;SDS011;5212;47.892;16.406;2022-08-01T19:34:11;2.10;;;1.90;;
10333;SDS011;5212;47.892;16.406;2022-08-01T19:36:39;2.00;;;1.90;;
10333;SDS011;5212;47.892;16.406;2022-08-01T19:39:07;2.13;;;1.93;;
10333;SDS011;5212;47.892;16.406;2022-08-01T19:41:34;1.70;;;1.60;;
10333;SDS011;5212;47.892;16.406;2022-08-01T19:44:02;2.23;;;2.00;;
10333;SDS011;5212;47.892;16.406;2022-08-01T19:46:32;2.40;;;2.00;;
10333;SDS011;5212;47.892;16.406;2022-08-01T19:48:59;2.30;;;2.10;;
10333;SDS011;5212;47.892;16.406;2022-08-01T19:51:27;2.10;;;1.77;;
10333;SDS011;5212;47.892;16.406;2022-08-01T19:53:56;2.20;;;2.00;;
10333;SDS011;5212;47.892;16.406;2022-08-01T19:56:27;2.33;;;2.13;;
10333;SDS011;5212;47.892;16.406;2022-08-01T19:58:57;2.20;;;2.00;;
10333;SDS011;5212;47.892;16.406;2022-08-01T20:01:25;2.30;;;2.00;;
10333;SDS011;5212;47.892;16.406;2022-08-01T20:03:52;2.07;;;1.87;;
10333;SDS011;5212;47.892;16.406;2022-08-01T20:06:20;2.07;;;1.80;;
10333;SDS011;5212;47.892;16.406;2022-08-01T20:08:48;2.00;;;1.90;;
10333;SDS011;5212;47.892;16.406;2022-08-01T20:11:15;2.10;;;1.80;;
10333;SDS011;5212;47.892;16.406;2022-08-01T20:13:42;1.70;;;1.60;;
10333;SDS011;5212;47.892;16.406;2022-08-01T20:16:10;2.27;;;2.00;;
10333;SDS011;5212;47.892;16.406;2022-08-01T20:18:38;2.33;;;2.13;;
10333;SDS011;5212;47.892;16.406;2022-08-01T20:21:05;2.33;;;2.10;;
10333;SDS011;5212;47.892;16.406;2022-08-01T20:23:36;2.07;;;1.87;;
10333;SDS011;5212;47.892;16.406;2022-08-01T20:26:05;1.90;;;1.80;;
10333;SDS011;5212;47.892;16.406;2022-08-01T20:28:34;2.23;;;2.00;;
10333;SDS011;5212;47.892;16.406;2022-08-01T20:31:05;2.27;;;2.07;;
10333;SDS011;5212;47.892;16.406;2022-08-01T20:33:33;2.00;;;1.80;;
10333;SDS011;5212;47.892;16.406;2022-08-01T20:36:01;2.20;;;2.00;;
10333;SDS011;5212;47.892;16.406;2022-08-01T20:38:29;1.80;;;1.70;;
10333;SDS011;5212;47.892;16.406;2022-08-01T20:40:56;2.20;;;1.90;;
10333;SDS011;5212;47.892;16.406;2022-08-01T20:43:25;2.10;;;1.93;;
10333;SDS011;5212;47.892;16.406;2022-08-01T20:45:52;2.60;;;2.13;;
10333;SDS011;5212;47.892;16.406;2022-08-01T20:48:21;1.77;;;1.67;;
10333;SDS011;5212;47.892;16.406;2022-08-01T20:50:48;1.80;;;1.70;;
10333;SDS011;5212;47.892;16.406;2022-08-01T20:53:34;2.33;;;1.80;;
10333;SDS011;5212;47.892;16.406;2022-08-01T20:56:05;1.77;;;1.67;;
10333;SDS011;5212;47.892;16.406;2022-08-01T20:58:39;2.63;;;1.90;;
10333;SDS011;5212;47.892;16.406;2022-08-01T21:01:16;2.33;;;2.00;;
10333;SDS011;5212;47.892;16.406;2022-08-01T21:03:49;2.23;;;2.03;;
10333;SDS011;5212;47.892;16.406;2022-08-01T21:06:25;2.03;;;1.90;;
10333;SDS011;5212;47.892;16.406;2022-08-01T21:09:03;2.33;;;2.13;;
10333;SDS011;5212;47.892;16.406;2022-08-01T21:11:35;1.90;;;1.80;;
10333;SDS011;5212;47.892;16.406;2022-08-01T21:14:08;2.33;;;1.90;;
10333;SDS011;5212;47.892;16.406;2022-08-01T21:16:38;2.40;;;2.10;;
10333;SDS011;5212;47.892;16.406;2022-08-01T21:19:08;2.50;;;2.30;;
10333;SDS011;5212;47.892;16.406;2022-08-01T21:21:38;2.27;;;2.10;;
10333;SDS011;5212;47.892;16.406;2022-08-01T21:24:14;2.00;;;1.90;;
10333;SDS011;5212;47.892;16.406;2022-08-01T21:26:42;2.20;;;2.00;;
10333;SDS011;5212;47.892;16.406;2022-08-01T21:29:11;2.00;;;1.90;;
10333;SDS011;5212;47.892;16.406;2022-08-01T21:31:39;2.30;;;2.10;;
10333;SDS011;5212;47.892;16.406;2022-08-01T21:34:07;2.13;;;2.00;;
10333;SDS011;5212;47.892;16.406;2022-08-01T21:36:36;2.40;;;2.20;;
10333;SDS011;5212;47.892;16.406;2022-08-01T21:39:04;2.10;;;1.90;;
10333;SDS011;5212;47.892;16.406;2022-08-01T21:41:32;2.20;;;2.00;;
10333;SDS011;5212;47.892;16.406;2022-08-01T21:44:00;2.47;;;2.27;;
10333;SDS011;5212;47.892;16.406;2022-08-01T21:46:29;2.30;;;2.10;;
10333;SDS011;5212;47.892;16.406;2022-08-01T21:48:57;2.30;;;2.10;;
10333;SDS011;5212;47.892;16.406;2022-08-01T21:51:28;2.23;;;2.00;;
10333;SDS011;5212;47.892;16.406;2022-08-01T21:54:02;2.13;;;1.93;;
10333;SDS011;5212;47.892;16.406;2022-08-01T21:56:31;1.80;;;1.70;;
10333;SDS011;5212;47.892;16.406;2022-08-01T21:59:07;1.93;;;1.70;;
10333;SDS011;5212;47.892;16.406;2022-08-01T22:01:42;2.07;;;1.90;;
10333;SDS011;5212;47.892;16.406;2022-08-01T22:04:12;1.93;;;1.83;;
10333;SDS011;5212;47.892;16.406;2022-08-01T22:06:41;2.23;;;2.03;;
10333;SDS011;5212;47.892;16.406;2022-08-01T22:09:12;2.10;;;1.90;;
10333;SDS011;5212;47.892;16.406;2022-08-01T22:11:40;2.73;;;2.50;;
10333;SDS011;5212;47.892;16.406;2022-08-01T22:14:08;2.63;;;2.20;;
10333;SDS011;5212;47.892;16.406;2022-08-01T22:16:40;2.10;;;1.90;;
10333;SDS011;5212;47.892;16.406;2022-08-01T22:19:08;2.40;;;2.20;;
10333;SDS011;5212;47.892;16.406;2022-08-01T22:21:37;2.30;;;2.10;;
10333;SDS011;5212;47.892;16.406;2022-08-01T22:24:04;2.83;;;2.00;;
10333;SDS011;5212;47.892;16.406;2022-08-01T22:26:32;2.40;;;2.20;;
10333;SDS011;5212;47.892;16.406;2022-08-01T22:29:02;2.53;;;2.30;;
10333;SDS011;5212;47.892;16.406;2022-08-01T22:31:29;2.40;;;2.17;;
10333;SDS011;5212;47.892;16.406;2022-08-01T22:33:58;2.40;;;2.20;;
10333;SDS011;5212;47.892;16.406;2022-08-01T22:36:25;2.97;;;2.43;;
10333;SDS011;5212;47.892;16.406;2022-08-01T22:38:52;2.70;;;2.50;;
10333;SDS011;5212;47.892;16.406;2022-08-01T22:41:23;2.67;;;2.47;;
10333;SDS011;5212;47.892;16.406;2022-08-01T22:43:53;3.67;;;2.77;;
10333;SDS011;5212;47.892;16.406;2022-08-01T22:46:27;2.80;;;2.60;;
10333;SDS011;5212;47.892;16.406;2022-08-01T22:48:59;2.70;;;2.47;;
10333;SDS011;5212;47.892;16.406;2022-08-01T22:51:34;2.73;;;2.53;;
10333;SDS011;5212;47.892;16.406;2022-08-01T22:54:10;2.50;;;2.30;;
10333;SDS011;5212;47.892;16.406;2022-08-01T22:56:40;3.80;;;2.60;;
10333;SDS011;5212;47.892;16.406;2022-08-01T22:59:08;2.40;;;2.20;;
10333;SDS011;5212;47.892;16.406;2022-08-01T23:01:40;2.87;;;2.57;;
10333;SDS011;5212;47.892;16.406;2022-08-01T23:04:12;2.57;;;2.37;;
10333;SDS011;5212;47.892;16.406;2022-08-01T23:06:46;2.47;;;2.27;;
10333;SDS011;5212;47.892;16.406;2022-08-01T23:09:13;4.70;;;2.70;;
10333;SDS011;5212;47.892;16.406;2022-08-01T23:11:40;2.90;;;2.70;;
10333;SDS011;5212;47.892;16.406;2022-08-01T23:14:07;2.80;;;2.60;;
10333;SDS011;5212;47.892;16.406;2022-08-01T23:16:35;2.83;;;2.63;;
10333;SDS011;5212;47.892;16.406;2022-08-01T23:19:03;3.97;;;2.43;;
10333;SDS011;5212;47.892;16.406;2022-08-01T23:21:32;3.20;;;2.87;;
10333;SDS011;5212;47.892;16.406;2022-08-01T23:24:00;6.13;;;2.90;;
10333;SDS011;5212;47.892;16.406;2022-08-01T23:26:27;3.37;;;2.67;;
10333;SDS011;5212;47.892;16.406;2022-08-01T23:28:54;2.63;;;2.43;;
10333;SDS011;5212;47.892;16.406;2022-08-01T23:31:23;3.00;;;2.40;;
10333;SDS011;5212;47.892;16.406;2022-08-01T23:33:50;2.80;;;2.60;;
10333;SDS011;5212;47.892;16.406;2022-08-01T23:36:17;2.47;;;2.27;;
10333;SDS011;5212;47.892;16.406;2022-08-01T23:38:46;3.00;;;2.40;;
10333;SDS011;5212;47.892;16.406;2022-08-01T23:41:13;2.67;;;2.47;;
10333;SDS011;5212;47.892;16.406;2022-08-01T23:43:43;2.70;;;2.50;;
10333;SDS011;5212;47.892;16.406;2022-08-01T23:46:11;2.30;;;2.10;;
10333;SDS011;5212;47.892;16.406;2022-08-01T23:48:37;2.40;;;2.20;;
10333;SDS011;5212;47.892;16.406;2022-08-01T23:51:05;2.67;;;2.47;;
10333;SDS011;5212;47.892;16.406;2022-08-01T23:53:32;2.43;;;2.23;;
10333;SDS011;5212;47.892;16.406;2022-08-01T23:56:01;2.40;;;2.17;;
10333;SDS011;5212;47.892;16.406;2022-08-01T23:58:28;2.70;;;2.50;;
